Aérodrome :
LOGIN :

S'inscrire | Disclaimer

   EN    FR    IT 

 










Légende :    VFR   VFR Marginal   IFR   IFR Intensif   IFR Très Intensif
Visi : 
Plafond : 
>= 8 km
>= 3000ft
5 à 8 km
1000 à 3000 ft
1500m à 5 km
500 à 1000 ft
800 à 1500m
200 à 500 ft
< 800m
< 200 ft
Symboles :   Orages  Brouillard  Fortes neiges  Fortes précipitations  Vent > 20 kt
SIGMETs :   Divers  Orages  Givrage  Turbulence  Onde Orograph.  Cendres Volcan.






- Altitude de l'aérodrome : 37 ft
- Code IATA : OLB


LIEO - Olbia Costa Smeralda

DERNIER METAR :
  • 180050Z 23006KT CAVOK 09/08 Q1011

METARs EXPIRÉS :
  • 180020Z 23006KT 9999 SCT025 10/09 Q1011
  • 172350Z 21005KT CAVOK 10/08 Q1011
  • 172320Z 20004KT 9999 SCT015 10/09 Q1011
  • 172250Z 19004KT 9999 SCT015 10/09 Q1011
  • 172220Z 19005KT 160V220 9999 SCT020 10/08 Q1011

TAF TAF LIEO
Valide du 18 à 00h jusqu'au 19 à 00h UTC


172300Z 1800/1824 25014KT 9999 SCT030
TEMPO 1815/1824 4000 RA



MET'MAP, la Météo Aéronautique d'un coup d'oeil ! - Copyright ORBIFLY Décembre 2007 - Disclaimer

ORBIFLY MET'MAP TEAM :

Programmation & Développement : Alexandra Zaïnal
Conception & Développement : Baudouin d'Aumeries
Co-Programmation & Développement : Marc-Olivier Méhu
Soutien technique & logistique : Manuel Goepfert

Contact : metmap@orbifly.com




SOURCES & CREDITS :

   NOAA